Time;durP1;ratioP1;P1;durP2;ratioP2;P2;SDS_P1;SDS_P2;PMS_P1;PMS_P2;Temp;Humidity;BMP_temperature;BMP_pressure;BME280_temperature;BME280_humidity;BME280_pressure;Samples;Min_cycle;Max_cycle;Signal;HPM_P1;HPM_P2
2023/05/06 00:02:08;;;;;;;16.40;4.18;;;6.10;94.50;;;;;;5031281;28;20670;-76
2023/05/06 00:04:35;;;;;;;12.07;3.72;;;6.10;95.40;;;;;;5041282;28;20105;-75
2023/05/06 00:07:03;;;;;;;7.38;3.42;;;6.10;95.10;;;;;;5036104;28;20065;-75
2023/05/06 00:09:29;;;;;;;11.70;4.00;;;6.10;94.00;;;;;;5038629;28;20495;-76
2023/05/06 00:11:56;;;;;;;10.52;4.28;;;6.00;93.90;;;;;;5036890;28;20048;-76
2023/05/06 00:14:23;;;;;;;11.35;3.85;;;6.10;94.40;;;;;;5038961;28;20045;-75
2023/05/06 00:16:50;;;;;;;12.15;3.85;;;6.00;93.90;;;;;;5039268;28;20342;-75
2023/05/06 00:19:17;;;;;;;13.52;4.13;;;6.10;93.30;;;;;;5038363;28;20056;-75
2023/05/06 00:21:44;;;;;;;14.70;5.00;;;6.00;93.20;;;;;;5033194;28;20052;-76
2023/05/06 00:24:11;;;;;;;12.65;4.07;;;6.00;93.00;;;;;;5038835;28;20497;-76
2023/05/06 00:26:37;;;;;;;12.23;4.18;;;6.00;92.50;;;;;;5035905;28;20052;-74
2023/05/06 00:29:04;;;;;;;10.48;3.75;;;6.00;92.30;;;;;;5041247;28;20052;-74
2023/05/06 00:31:31;;;;;;;10.65;4.13;;;6.00;92.20;;;;;;5032448;28;20060;-74
2023/05/06 00:33:58;;;;;;;10.88;4.57;;;6.00;92.30;;;;;;5039467;28;20645;-74
2023/05/06 00:36:25;;;;;;;14.25;3.65;;;6.00;91.90;;;;;;5035360;28;20053;-74
2023/05/06 00:38:52;;;;;;;13.48;3.95;;;6.00;90.60;;;;;;5036113;28;20067;-74
2023/05/06 00:41:18;;;;;;;14.50;4.20;;;6.00;92.50;;;;;;5042536;28;20056;-74
2023/05/06 00:43:45;;;;;;;7.68;3.85;;;5.90;90.90;;;;;;5035862;28;20063;-74
2023/05/06 00:46:14;;;;;;;8.32;3.55;;;5.90;91.80;;;;;;5032511;28;20076;-75
2023/05/06 00:48:43;;;;;;;14.43;3.90;;;5.90;90.80;;;;;;5039521;28;20128;-74
2023/05/06 00:51:11;;;;;;;9.07;3.33;;;5.80;92.50;;;;;;5036152;28;20140;-74
2023/05/06 00:53:39;;;;;;;11.90;3.92;;;5.80;92.80;;;;;;5039648;28;20070;-74
2023/05/06 00:56:06;;;;;;;7.82;3.20;;;5.80;93.10;;;;;;5030675;28;20057;-74
2023/05/06 00:58:33;;;;;;;11.00;3.83;;;5.70;92.50;;;;;;5042005;28;20995;-74
2023/05/06 01:01:01;;;;;;;8.38;3.45;;;5.70;92.60;;;;;;5040420;28;20470;-74
2023/05/06 01:03:28;;;;;;;10.77;3.72;;;5.70;93.20;;;;;;5042997;28;20052;-74
2023/05/06 01:06:20;;;;;;;13.23;3.90;;;5.60;92.50;;;;;;5040059;28;20488;-75
2023/05/06 01:09:21;;;;;;;14.82;3.92;;;5.60;92.70;;;;;;5038927;28;20131;-75
2023/05/06 01:12:00;;;;;;;9.10;3.50;;;5.60;92.60;;;;;;5033989;28;20045;-74
2023/05/06 01:14:45;;;;;;;8.07;3.78;;;5.60;92.60;;;;;;5034186;28;20037;-73
2023/05/06 01:17:16;;;;;;;9.93;3.88;;;5.60;91.80;;;;;;5035947;28;20045;-74
2023/05/06 01:19:47;;;;;;;9.57;3.83;;;5.60;92.10;;;;;;5032685;28;20056;-74
2023/05/06 01:22:15;;;;;;;20.33;4.32;;;5.60;90.70;;;;;;5038277;28;20060;-74
2023/05/06 01:24:44;;;;;;;9.63;3.95;;;5.60;91.10;;;;;;5038090;28;20409;-74
2023/05/06 01:27:12;;;;;;;8.40;3.55;;;5.50;90.90;;;;;;5031990;28;20530;-74
2023/05/06 01:29:43;;;;;;;11.88;3.40;;;5.50;91.00;;;;;;5041333;28;20730;-74
2023/05/06 01:32:18;;;;;;;8.27;3.85;;;5.50;91.80;;;;;;5040082;28;20185;-74
2023/05/06 01:35:09;;;;;;;13.00;3.67;;;5.50;91.70;;;;;;5036481;28;20057;-74
2023/05/06 01:37:54;;;;;;;10.02;4.13;;;5.50;91.00;;;;;;5034682;28;20478;-74
2023/05/06 01:40:26;;;;;;;9.30;4.13;;;5.50;90.50;;;;;;5041737;28;20045;-74
2023/05/06 01:42:54;;;;;;;9.95;3.50;;;5.50;89.40;;;;;;5038142;28;20135;-74
2023/05/06 01:45:25;;;;;;;11.32;4.13;;;5.50;91.40;;;;;;5044556;28;20044;-74
2023/05/06 01:47:53;;;;;;;13.15;3.70;;;5.50;90.40;;;;;;5040661;28;20056;-74
2023/05/06 01:50:20;;;;;;;9.48;3.95;;;5.60;90.10;;;;;;5035009;28;20077;-74
2023/05/06 01:53:01;;;;;;;11.02;3.78;;;5.50;90.10;;;;;;5043049;28;20052;-74
2023/05/06 01:55:28;;;;;;;11.02;4.35;;;5.50;90.30;;;;;;5036296;28;20556;-74
2023/05/06 01:57:55;;;;;;;10.23;4.18;;;5.50;89.80;;;;;;5042755;28;20056;-73
2023/05/06 02:00:25;;;;;;;10.98;3.42;;;5.50;89.80;;;;;;5039933;28;20041;-74
2023/05/06 02:02:52;;;;;;;9.73;3.97;;;5.50;91.00;;;;;;5034170;28;20065;-74
2023/05/06 02:05:19;;;;;;;13.90;4.18;;;5.50;91.20;;;;;;5030654;28;20057;-74
2023/05/06 02:07:46;;;;;;;9.30;3.80;;;5.50;90.60;;;;;;5034110;28;20044;-74
2023/05/06 02:10:13;;;;;;;10.73;3.90;;;5.50;91.30;;;;;;5038923;28;20045;-75
2023/05/06 02:12:40;;;;;;;7.88;3.35;;;5.40;90.90;;;;;;5040446;28;20132;-75
2023/05/06 02:15:07;;;;;;;8.32;3.65;;;5.40;92.20;;;;;;5042766;28;20053;-75
2023/05/06 02:17:36;;;;;;;10.88;3.83;;;5.30;93.10;;;;;;5036332;28;20064;-76
2023/05/06 02:20:04;;;;;;;12.23;3.65;;;5.30;93.70;;;;;;5036955;28;20060;-75
2023/05/06 02:22:31;;;;;;;16.60;4.07;;;5.30;94.60;;;;;;5045699;28;20136;-75
2023/05/06 02:24:58;;;;;;;11.05;4.00;;;5.20;94.90;;;;;;5045141;28;20782;-75
2023/05/06 02:27:25;;;;;;;12.13;3.70;;;5.20;96.10;;;;;;5042501;28;20348;-75
2023/05/06 02:29:52;;;;;;;13.65;4.70;;;5.20;95.80;;;;;;5042671;28;20048;-75
2023/05/06 02:32:40;;;;;;;12.00;3.92;;;5.10;96.30;;;;;;5039319;28;20059;-75
2023/05/06 02:35:08;;;;;;;20.00;4.57;;;5.00;96.80;;;;;;5042379;28;20044;-75
2023/05/06 02:37:35;;;;;;;14.35;4.47;;;5.00;98.30;;;;;;5041574;28;20053;-75
2023/05/06 02:40:02;;;;;;;19.15;4.15;;;5.00;98.50;;;;;;5040767;28;20059;-75
2023/05/06 02:42:28;;;;;;;9.60;4.03;;;4.90;98.90;;;;;;5038468;28;20065;-75
2023/05/06 02:44:55;;;;;;;13.68;4.53;;;4.90;99.30;;;;;;5044382;28;20053;-75
2023/05/06 02:47:23;;;;;;;10.40;4.38;;;4.80;99.20;;;;;;5044999;28;20049;-75
2023/05/06 02:49:49;;;;;;;10.50;4.10;;;4.80;99.70;;;;;;5046065;28;20071;-75
2023/05/06 02:52:16;;;;;;;10.18;4.28;;;4.80;99.90;;;;;;5042263;28;20106;-75
2023/05/06 02:54:43;;;;;;;10.30;4.30;;;4.70;99.90;;;;;;5041226;28;20045;-74
2023/05/06 02:57:10;;;;;;;10.88;4.50;;;4.70;100.00;;;;;;5038376;28;20052;-75
2023/05/06 02:59:37;;;;;;;10.30;4.20;;;4.70;100.00;;;;;;5043773;28;20053;-75
2023/05/06 03:02:03;;;;;;;12.02;3.58;;;4.70;100.00;;;;;;5042265;28;21666;-75
2023/05/06 03:04:30;;;;;;;10.13;4.47;;;4.60;100.00;;;;;;5036331;28;20498;-75
2023/05/06 03:06:57;;;;;;;11.75;4.05;;;4.60;100.00;;;;;;5036976;28;20044;-75
2023/05/06 03:09:24;;;;;;;11.88;4.50;;;4.60;100.00;;;;;;5037991;28;20056;-75
2023/05/06 03:11:51;;;;;;;10.13;4.35;;;4.60;100.00;;;;;;5042562;28;20040;-75
2023/05/06 03:14:18;;;;;;;16.77;4.60;;;4.60;100.00;;;;;;5041496;28;20041;-75
2023/05/06 03:16:45;;;;;;;9.70;4.35;;;4.60;100.00;;;;;;5038707;28;20098;-74
2023/05/06 03:19:11;;;;;;;12.90;3.88;;;4.60;100.00;;;;;;5041804;28;20048;-75
2023/05/06 03:21:38;;;;;;;18.48;5.07;;;4.60;100.00;;;;;;5036808;28;20053;-75
2023/05/06 03:24:05;;;;;;;10.73;4.60;;;4.60;100.00;;;;;;5038177;28;20053;-75
2023/05/06 03:26:32;;;;;;;12.18;4.97;;;4.60;100.00;;;;;;5038207;28;20050;-75
2023/05/06 03:28:59;;;;;;;10.50;4.68;;;4.60;100.00;;;;;;5041652;28;20756;-76
2023/05/06 03:31:25;;;;;;;10.65;4.82;;;4.60;100.00;;;;;;5040668;28;20164;-76
2023/05/06 03:33:52;;;;;;;9.75;4.15;;;4.60;100.00;;;;;;5031064;28;20052;-75
2023/05/06 03:36:22;;;;;;;14.07;5.18;;;4.60;100.00;;;;;;5038065;28;20046;-75
2023/05/06 03:38:50;;;;;;;14.05;4.65;;;4.60;100.00;;;;;;5035097;28;20049;-76
2023/05/06 03:41:17;;;;;;;12.88;5.00;;;4.60;100.00;;;;;;5042443;28;20163;-75
2023/05/06 03:43:43;;;;;;;12.50;4.38;;;4.60;100.00;;;;;;5038638;28;20128;-75
2023/05/06 03:46:10;;;;;;;12.23;4.55;;;4.50;100.00;;;;;;5036552;28;20049;-75
2023/05/06 03:48:37;;;;;;;11.98;4.25;;;4.60;100.00;;;;;;5033529;28;20128;-75
2023/05/06 03:51:04;;;;;;;10.65;4.47;;;4.60;100.00;;;;;;5035275;28;20100;-75
2023/05/06 03:53:31;;;;;;;12.63;5.10;;;4.60;100.00;;;;;;5037840;28;20509;-74
2023/05/06 03:56:00;;;;;;;14.40;5.35;;;4.60;100.00;;;;;;5043931;28;20045;-74
2023/05/06 03:58:27;;;;;;;9.18;4.60;;;4.60;100.00;;;;;;5040531;28;20500;-74
2023/05/06 04:00:54;;;;;;;9.43;4.93;;;4.60;100.00;;;;;;5037364;28;20075;-75
2023/05/06 04:03:21;;;;;;;8.43;4.20;;;4.60;100.00;;;;;;5044009;28;20677;-75
2023/05/06 04:05:49;;;;;;;11.63;4.55;;;4.60;100.00;;;;;;5038856;28;20529;-75
2023/05/06 04:08:16;;;;;;;14.68;5.13;;;4.60;100.00;;;;;;5035953;28;20047;-74
2023/05/06 04:10:42;;;;;;;11.23;4.75;;;4.60;100.00;;;;;;5064341;28;20623;-75
2023/05/06 04:13:09;;;;;;;13.18;4.53;;;4.60;100.00;;;;;;5038687;28;20062;-74
2023/05/06 04:15:37;;;;;;;13.65;4.50;;;4.60;100.00;;;;;;5032698;28;20054;-75
2023/05/06 04:18:06;;;;;;;14.13;4.72;;;4.60;100.00;;;;;;5042060;28;20059;-75
2023/05/06 04:20:33;;;;;;;23.90;6.15;;;4.60;100.00;;;;;;5038838;28;20049;-75
2023/05/06 04:23:01;;;;;;;13.40;5.25;;;4.60;100.00;;;;;;5038968;28;20049;-75
2023/05/06 04:25:27;;;;;;;13.77;5.07;;;4.60;100.00;;;;;;5041036;28;20060;-74
2023/05/06 04:27:54;;;;;;;12.32;5.00;;;4.60;100.00;;;;;;5044103;28;20053;-75
2023/05/06 04:30:21;;;;;;;12.60;5.00;;;4.60;100.00;;;;;;5041608;28;20045;-75
2023/05/06 04:32:48;;;;;;;11.05;4.43;;;4.60;100.00;;;;;;5039846;28;20148;-75
2023/05/06 04:35:15;;;;;;;10.50;4.78;;;4.60;100.00;;;;;;5036310;28;20049;-75
2023/05/06 04:37:43;;;;;;;12.07;5.63;;;4.60;100.00;;;;;;5038481;28;20053;-75
2023/05/06 04:40:12;;;;;;;13.75;5.00;;;4.60;100.00;;;;;;5039916;28;20490;-75
2023/05/06 04:42:39;;;;;;;11.18;5.20;;;4.60;100.00;;;;;;5044679;28;20057;-75
2023/05/06 04:45:07;;;;;;;12.95;5.65;;;4.60;100.00;;;;;;5038672;28;20057;-75
2023/05/06 04:47:34;;;;;;;16.90;5.70;;;4.60;100.00;;;;;;5033677;28;20045;-75
2023/05/06 04:50:03;;;;;;;14.73;5.10;;;4.60;100.00;;;;;;5031735;28;20041;-75
2023/05/06 04:52:30;;;;;;;11.57;5.13;;;4.60;100.00;;;;;;5039906;28;20131;-75
2023/05/06 04:54:57;;;;;;;13.35;5.00;;;4.60;100.00;;;;;;5039173;28;20501;-76
2023/05/06 04:57:23;;;;;;;12.90;5.50;;;4.60;100.00;;;;;;5040632;28;20656;-80
2023/05/06 04:59:50;;;;;;;18.73;5.85;;;4.60;100.00;;;;;;5034071;28;20656;-76
2023/05/06 05:02:17;;;;;;;12.70;4.80;;;4.60;100.00;;;;;;5044747;28;20045;-77
2023/05/06 05:04:44;;;;;;;11.55;4.75;;;4.60;100.00;;;;;;5038130;28;20057;-74
2023/05/06 05:07:13;;;;;;;11.88;5.03;;;4.70;100.00;;;;;;5032465;28;20513;-74
2023/05/06 05:09:40;;;;;;;14.27;4.75;;;4.70;100.00;;;;;;5035052;28;20190;-74
2023/05/06 05:12:07;;;;;;;15.35;4.93;;;4.60;100.00;;;;;;5042211;28;20470;-73
2023/05/06 05:14:34;;;;;;;14.93;5.78;;;4.70;100.00;;;;;;5043236;28;20049;-74
2023/05/06 05:17:01;;;;;;;11.93;5.28;;;4.70;100.00;;;;;;5036179;28;20067;-74
2023/05/06 05:19:28;;;;;;;13.25;5.30;;;4.70;100.00;;;;;;5036058;28;20072;-73
2023/05/06 05:21:55;;;;;;;17.73;6.15;;;4.70;100.00;;;;;;5038067;28;20045;-76
2023/05/06 05:24:22;;;;;;;14.13;4.90;;;4.80;100.00;;;;;;5038191;28;20049;-76
2023/05/06 05:26:49;;;;;;;19.10;5.80;;;4.70;100.00;;;;;;5037434;28;20468;-76
2023/05/06 05:29:15;;;;;;;11.88;5.20;;;4.80;100.00;;;;;;5040989;28;20047;-76
2023/05/06 05:31:42;;;;;;;14.20;5.15;;;4.80;100.00;;;;;;5039692;28;20048;-76
2023/05/06 05:34:09;;;;;;;13.32;5.28;;;4.80;100.00;;;;;;5045680;28;20084;-77
2023/05/06 05:36:36;;;;;;;12.35;4.90;;;4.80;100.00;;;;;;5048512;28;20045;-79
2023/05/06 05:39:03;;;;;;;15.00;5.60;;;4.80;100.00;;;;;;5042223;28;20160;-76
2023/05/06 05:41:30;;;;;;;12.43;5.72;;;4.80;100.00;;;;;;5048736;28;20064;-77
2023/05/06 05:43:56;;;;;;;14.05;5.28;;;4.80;100.00;;;;;;5042803;28;20054;-80
2023/05/06 05:46:23;;;;;;;9.88;5.03;;;4.80;100.00;;;;;;5045257;28;20057;-79
2023/05/06 05:48:50;;;;;;;11.30;5.03;;;4.80;100.00;;;;;;5044271;28;20041;-79
2023/05/06 05:51:17;;;;;;;17.90;5.47;;;4.80;100.00;;;;;;5039789;28;20121;-81
2023/05/06 05:53:44;;;;;;;17.08;5.85;;;4.80;100.00;;;;;;5047794;28;20049;-79
2023/05/06 05:56:11;;;;;;;15.45;5.35;;;4.80;100.00;;;;;;5050055;28;20091;-81
2023/05/06 05:58:38;;;;;;;11.63;5.38;;;4.90;100.00;;;;;;5047799;28;20110;-80
2023/05/06 06:01:05;;;;;;;11.75;5.18;;;4.90;100.00;;;;;;5046540;28;20049;-78
2023/05/06 06:03:31;;;;;;;16.20;5.70;;;4.90;100.00;;;;;;5046139;28;20467;-80
2023/05/06 06:05:59;;;;;;;19.45;5.78;;;4.90;100.00;;;;;;5047745;28;20068;-80
2023/05/06 06:08:25;;;;;;;12.75;6.30;;;4.90;100.00;;;;;;5048749;28;20053;-79
2023/05/06 06:10:52;;;;;;;16.58;6.13;;;4.90;100.00;;;;;;5038906;28;20048;-80
2023/05/06 06:13:19;;;;;;;18.50;5.85;;;4.90;100.00;;;;;;5044222;28;20498;-80
2023/05/06 06:15:46;;;;;;;17.42;5.63;;;4.90;100.00;;;;;;5045302;28;20513;-79
2023/05/06 06:18:13;;;;;;;16.25;5.85;;;4.90;100.00;;;;;;5050871;28;20055;-82
2023/05/06 06:20:40;;;;;;;14.85;6.25;;;4.90;100.00;;;;;;5047982;28;20099;-81
2023/05/06 06:23:07;;;;;;;18.75;5.72;;;4.90;100.00;;;;;;5049486;28;20051;-80
2023/05/06 06:25:34;;;;;;;20.42;6.03;;;4.90;100.00;;;;;;5047751;28;20076;-79
2023/05/06 06:28:00;;;;;;;18.33;5.72;;;4.90;100.00;;;;;;5040986;28;20576;-81
2023/05/06 06:30:27;;;;;;;15.10;5.65;;;4.90;100.00;;;;;;5043620;28;20049;-80
2023/05/06 06:32:55;;;;;;;12.05;5.80;;;5.00;100.00;;;;;;5044983;28;20045;-78
2023/05/06 06:35:22;;;;;;;14.57;6.00;;;5.00;100.00;;;;;;5045644;28;20044;-78
2023/05/06 06:37:49;;;;;;;13.40;5.28;;;5.00;100.00;;;;;;5046723;28;20656;-79
2023/05/06 06:40:16;;;;;;;15.80;5.80;;;5.10;100.00;;;;;;5043351;28;20052;-79
2023/05/06 06:42:43;;;;;;;15.98;5.30;;;5.10;100.00;;;;;;5046346;28;20052;-80
2023/05/06 06:45:10;;;;;;;15.88;5.90;;;5.20;100.00;;;;;;5045620;28;20122;-82
2023/05/06 06:47:37;;;;;;;16.70;6.20;;;5.20;100.00;;;;;;5046748;28;20044;-78
2023/05/06 06:50:05;;;;;;;19.10;6.20;;;5.20;100.00;;;;;;5042394;28;20795;-83
2023/05/06 06:52:32;;;;;;;13.30;6.00;;;5.30;100.00;;;;;;5041595;28;20055;-84
2023/05/06 06:54:59;;;;;;;14.93;5.72;;;5.30;100.00;;;;;;5039546;28;20053;-78
2023/05/06 06:57:26;;;;;;;15.05;6.60;;;5.30;100.00;;;;;;5038354;28;20045;-76
2023/05/06 06:59:54;;;;;;;19.40;6.72;;;5.40;100.00;;;;;;5036335;28;20549;-75
2023/05/06 07:02:21;;;;;;;12.93;5.50;;;5.50;100.00;;;;;;5036601;28;20048;-77
2023/05/06 07:04:48;;;;;;;17.30;6.32;;;5.60;100.00;;;;;;5037081;28;20057;-82
2023/05/06 07:07:15;;;;;;;16.25;6.57;;;5.60;100.00;;;;;;5034490;28;20059;-78
2023/05/06 07:09:43;;;;;;;18.98;6.55;;;5.70;100.00;;;;;;5040116;28;20049;-79
2023/05/06 07:12:10;;;;;;;15.55;5.88;;;5.70;100.00;;;;;;5045907;28;20045;-79
2023/05/06 07:14:37;;;;;;;15.75;6.47;;;5.80;100.00;;;;;;5041256;28;20049;-78
2023/05/06 07:17:03;;;;;;;19.58;6.25;;;5.80;100.00;;;;;;5039587;28;20152;-77
2023/05/06 07:22:42;;;;;;;17.75;7.38;;;5.80;100.00;;;;;;4962221;28;20113;-83
2023/05/06 07:25:09;;;;;;;15.00;6.40;;;5.80;100.00;;;;;;4962416;28;20121;-83
2023/05/06 07:27:36;;;;;;;15.77;6.25;;;5.80;100.00;;;;;;4950834;28;20057;-82
2023/05/06 07:30:10;;;;;;;14.68;6.50;;;5.80;100.00;;;;;;4945041;28;20046;-83
2023/05/06 07:32:40;;;;;;;14.48;6.07;;;5.90;100.00;;;;;;4949933;28;20415;-81
2023/05/06 07:35:07;;;;;;;22.98;6.40;;;5.90;100.00;;;;;;4945025;28;20054;-84
2023/05/06 07:37:35;;;;;;;17.15;6.25;;;6.00;100.00;;;;;;4948651;28;20059;-84
2023/05/06 07:40:05;;;;;;;13.05;6.45;;;6.00;100.00;;;;;;4948787;28;20042;-82
2023/05/06 07:42:31;;;;;;;13.38;6.20;;;6.10;100.00;;;;;;4953379;28;20134;-82
2023/05/06 07:44:59;;;;;;;28.85;7.35;;;6.10;100.00;;;;;;4965009;28;20062;-81
2023/05/06 07:47:28;;;;;;;16.50;6.93;;;6.20;100.00;;;;;;4967544;28;20125;-81
2023/05/06 07:49:56;;;;;;;13.88;6.25;;;6.20;100.00;;;;;;4951609;28;20051;-84
2023/05/06 07:52:23;;;;;;;16.75;6.30;;;6.20;100.00;;;;;;4969707;28;20113;-82
2023/05/06 07:54:50;;;;;;;17.50;7.50;;;6.20;100.00;;;;;;4967316;28;20043;-82
2023/05/06 07:57:17;;;;;;;14.20;7.03;;;6.30;100.00;;;;;;4951164;28;20085;-82
2023/05/06 07:59:48;;;;;;;19.80;7.65;;;6.30;100.00;;;;;;4953893;28;20065;-81
2023/05/06 08:02:15;;;;;;;20.10;7.32;;;6.30;100.00;;;;;;4966428;28;20057;-81
2023/05/06 08:04:45;;;;;;;18.92;7.03;;;6.30;100.00;;;;;;4950202;28;20054;-81
2023/05/06 08:07:17;;;;;;;16.75;7.32;;;6.30;100.00;;;;;;4950529;28;20074;-83
2023/05/06 08:09:44;;;;;;;24.17;7.18;;;6.30;100.00;;;;;;4950864;28;20061;-79
2023/05/06 08:12:11;;;;;;;17.88;7.20;;;6.30;100.00;;;;;;4970184;28;20046;-82
2023/05/06 08:14:38;;;;;;;15.45;6.47;;;6.30;100.00;;;;;;4963293;28;20070;-81
2023/05/06 08:17:05;;;;;;;18.73;6.80;;;6.30;100.00;;;;;;4967058;28;20070;-83
2023/05/06 08:19:34;;;;;;;19.35;7.55;;;6.40;100.00;;;;;;4952687;28;20078;-82
2023/05/06 08:22:03;;;;;;;13.98;6.57;;;6.40;100.00;;;;;;4962768;28;20055;-78
2023/05/06 08:24:30;;;;;;;17.00;7.35;;;6.50;100.00;;;;;;4948696;28;20067;-80
2023/05/06 08:26:57;;;;;;;19.25;7.43;;;6.50;100.00;;;;;;4964310;28;20051;-79
2023/05/06 08:29:24;;;;;;;16.77;6.80;;;6.50;100.00;;;;;;4962592;28;20057;-78
2023/05/06 08:31:50;;;;;;;19.35;7.68;;;6.60;100.00;;;;;;4964257;28;20163;-80
2023/05/06 08:34:19;;;;;;;21.95;8.13;;;6.60;100.00;;;;;;4949759;28;20723;-79
2023/05/06 08:36:47;;;;;;;24.58;7.00;;;6.70;100.00;;;;;;4965231;28;21677;-80
2023/05/06 08:39:14;;;;;;;21.02;7.50;;;6.90;100.00;;;;;;4952734;28;20492;-81
2023/05/06 08:41:47;;;;;;;16.15;7.63;;;6.90;100.00;;;;;;4953839;28;20778;-80
2023/05/06 08:44:17;;;;;;;26.10;8.10;;;6.90;99.60;;;;;;4966542;28;20058;-79
2023/05/06 08:46:45;;;;;;;15.00;7.63;;;6.90;99.30;;;;;;4964702;28;20063;-80
2023/05/06 08:49:12;;;;;;;14.20;7.30;;;7.00;99.20;;;;;;4962969;28;20039;-81
2023/05/06 08:51:42;;;;;;;17.17;8.02;;;7.00;98.90;;;;;;4947602;28;20476;-79
2023/05/06 08:54:12;;;;;;;13.90;6.93;;;7.10;99.30;;;;;;4967112;28;20518;-79
2023/05/06 08:56:44;;;;;;;17.35;6.97;;;7.10;99.00;;;;;;4967804;28;20146;-79
2023/05/06 08:59:12;;;;;;;13.93;7.00;;;7.20;98.60;;;;;;4968320;28;20399;-79
2023/05/06 09:01:42;;;;;;;15.77;7.32;;;7.30;98.00;;;;;;4952140;28;20051;-79
2023/05/06 09:04:09;;;;;;;15.15;7.63;;;7.30;97.80;;;;;;4949262;28;20058;-79
2023/05/06 09:06:37;;;;;;;16.38;7.50;;;7.30;97.40;;;;;;4963676;28;20061;-78
2023/05/06 09:09:04;;;;;;;19.98;7.35;;;7.30;96.90;;;;;;4966983;28;20046;-78
2023/05/06 09:11:31;;;;;;;13.55;7.13;;;7.40;97.40;;;;;;4947127;28;20122;-79
2023/05/06 09:14:12;;;;;;;20.23;7.85;;;7.60;97.90;;;;;;4968156;28;20611;-78
2023/05/06 09:16:42;;;;;;;19.10;7.38;;;7.70;96.00;;;;;;4965662;28;20058;-78
2023/05/06 09:19:09;;;;;;;22.95;8.40;;;7.70;96.00;;;;;;4963028;28;20051;-78
2023/05/06 09:21:39;;;;;;;24.38;7.85;;;7.80;95.90;;;;;;4946587;28;20180;-78
2023/05/06 09:24:07;;;;;;;15.27;7.50;;;7.80;94.90;;;;;;4968459;28;20082;-78
2023/05/06 09:26:38;;;;;;;13.85;8.48;;;7.70;95.20;;;;;;4951523;28;20074;-78
2023/05/06 09:29:05;;;;;;;18.67;8.07;;;7.80;95.80;;;;;;4948649;28;20051;-78
2023/05/06 09:31:38;;;;;;;16.77;8.10;;;7.80;94.70;;;;;;4968320;28;20050;-78
2023/05/06 09:34:06;;;;;;;18.45;9.30;;;7.80;94.80;;;;;;4967735;28;20058;-76
2023/05/06 09:36:32;;;;;;;18.90;9.48;;;7.80;95.20;;;;;;4962800;28;20130;-76
2023/05/06 09:38:59;;;;;;;16.02;8.30;;;7.80;94.00;;;;;;4950534;28;20146;-76
2023/05/06 09:41:26;;;;;;;15.82;8.63;;;7.80;93.10;;;;;;4960648;28;20367;-76
2023/05/06 09:43:54;;;;;;;17.80;8.15;;;7.80;93.40;;;;;;4948498;28;20055;-76
2023/05/06 09:46:22;;;;;;;17.73;7.95;;;7.80;94.90;;;;;;4967099;28;20051;-76
2023/05/06 09:48:51;;;;;;;21.92;8.80;;;7.80;94.40;;;;;;4966453;28;20047;-76
2023/05/06 09:51:18;;;;;;;17.08;8.88;;;7.90;95.60;;;;;;4968155;28;20058;-76
2023/05/06 09:53:46;;;;;;;17.85;9.07;;;8.00;94.60;;;;;;4971158;28;20050;-76
2023/05/06 09:56:13;;;;;;;16.70;9.10;;;8.00;93.50;;;;;;4946638;28;20039;-75
2023/05/06 09:58:41;;;;;;;17.00;8.77;;;8.00;93.80;;;;;;4967819;28;20057;-76
2023/05/06 10:01:12;;;;;;;19.08;10.10;;;8.00;92.60;;;;;;4963921;28;20055;-76
2023/05/06 10:03:45;;;;;;;17.90;9.23;;;8.00;93.90;;;;;;4968681;28;20093;-76
2023/05/06 10:06:14;;;;;;;27.08;9.85;;;8.00;93.90;;;;;;4949630;28;20042;-78
2023/05/06 10:08:44;;;;;;;19.23;9.65;;;8.10;94.40;;;;;;4964401;28;20058;-77
2023/05/06 10:11:13;;;;;;;21.80;8.55;;;8.30;95.10;;;;;;4966602;28;20652;-75
2023/05/06 10:13:41;;;;;;;19.60;9.65;;;8.40;92.70;;;;;;4961056;28;20101;-75
2023/05/06 10:16:09;;;;;;;18.85;9.27;;;8.50;92.70;;;;;;4961149;28;20050;-75
2023/05/06 10:18:38;;;;;;;18.02;9.65;;;8.50;91.80;;;;;;4966039;28;20491;-75
2023/05/06 10:21:12;;;;;;;18.08;9.13;;;8.50;89.90;;;;;;4950083;28;20054;-75
2023/05/06 10:23:48;;;;;;;24.25;9.18;;;8.40;91.80;;;;;;4959143;28;20059;-76
2023/05/06 10:26:18;;;;;;;16.15;8.77;;;8.50;91.60;;;;;;4958048;28;20054;-80
2023/05/06 10:28:48;;;;;;;19.33;9.25;;;8.60;91.60;;;;;;4952649;28;20055;-83
2023/05/06 10:31:15;;;;;;;16.55;9.07;;;8.70;90.10;;;;;;4957086;28;20062;-86
2023/05/06 10:33:47;;;;;;;20.17;8.77;;;8.80;91.40;;;;;;4972428;28;20046;-83
2023/05/06 10:36:23;;;;;;;15.48;8.88;;;8.90;89.90;;;;;;4967518;28;20109;-81
2023/05/06 10:38:56;;;;;;;18.25;9.05;;;9.00;90.40;;;;;;4958581;28;20133;-82
2023/05/06 10:41:26;;;;;;;18.02;9.30;;;9.10;89.90;;;;;;4947076;28;20059;-78
2023/05/06 10:43:55;;;;;;;14.70;8.23;;;9.10;89.40;;;;;;4952324;28;20083;-78
2023/05/06 10:46:25;;;;;;;18.20;8.32;;;9.20;89.80;;;;;;4967262;28;20164;-76
2023/05/06 10:49:12;;;;;;;17.67;8.88;;;9.40;91.20;;;;;;4969512;28;20055;-79
2023/05/06 10:51:42;;;;;;;17.77;8.48;;;9.50;89.50;;;;;;4942243;28;20055;-78
2023/05/06 10:54:19;;;;;;;14.70;7.90;;;9.50;88.50;;;;;;4961306;28;20154;-79
2023/05/06 10:56:48;;;;;;;17.67;8.55;;;9.50;87.70;;;;;;4967932;28;20739;-78
2023/05/06 10:59:28;;;;;;;18.15;9.07;;;9.40;87.50;;;;;;4969909;28;20070;-79
2023/05/06 11:02:04;;;;;;;15.68;8.50;;;9.40;88.00;;;;;;4961871;28;20420;-79
2023/05/06 11:04:31;;;;;;;14.05;8.10;;;9.20;86.50;;;;;;4971750;28;20050;-79
2023/05/06 11:07:06;;;;;;;16.10;8.07;;;9.10;85.90;;;;;;4953645;28;20054;-80
2023/05/06 11:09:59;;;;;;;18.23;7.97;;;8.90;86.30;;;;;;4965908;28;20050;-79
2023/05/06 11:12:45;;;;;;;16.60;9.00;;;9.00;88.10;;;;;;4965989;28;20047;-79
2023/05/06 11:15:39;;;;;;;15.90;7.78;;;8.90;86.80;;;;;;4966043;28;20047;-78
2023/05/06 11:18:26;;;;;;;14.95;7.82;;;8.90;85.50;;;;;;4956284;28;20075;-79
2023/05/06 11:20:59;;;;;;;14.10;7.80;;;8.80;86.70;;;;;;4968436;28;20047;-79
2023/05/06 11:23:42;;;;;;;15.70;8.48;;;8.80;87.60;;;;;;4968973;28;20118;-80
2023/05/06 11:26:09;;;;;;;15.15;8.57;;;8.70;87.10;;;;;;4979132;28;20055;-77
2023/05/06 11:28:37;;;;;;;17.55;8.50;;;8.70;88.10;;;;;;4953245;28;20054;-81
2023/05/06 11:31:06;;;;;;;14.27;7.95;;;8.60;87.90;;;;;;4954793;28;20159;-74
2023/05/06 11:33:35;;;;;;;20.17;8.93;;;8.60;88.20;;;;;;4969581;28;20793;-80
2023/05/06 11:36:06;;;;;;;15.98;7.45;;;8.60;88.00;;;;;;4971299;28;20054;-78
2023/05/06 11:39:04;;;;;;;13.95;7.90;;;8.50;88.90;;;;;;4970797;28;20053;-79
2023/05/06 11:41:31;;;;;;;13.73;7.50;;;8.50;88.60;;;;;;4961569;28;20477;-76
2023/05/06 11:43:57;;;;;;;14.93;8.70;;;8.50;89.10;;;;;;4963738;28;20051;-76
2023/05/06 11:46:30;;;;;;;23.90;11.63;;;8.50;88.90;;;;;;4965171;28;20142;-75
2023/05/06 11:48:58;;;;;;;15.23;7.45;;;8.50;89.40;;;;;;4950196;28;20055;-78
2023/05/06 11:51:25;;;;;;;14.18;7.72;;;8.50;88.10;;;;;;4966685;28;20042;-77
2023/05/06 11:54:07;;;;;;;58.97;21.42;;;8.50;89.40;;;;;;4946755;28;20042;-75
2023/05/06 11:56:48;;;;;;;37.35;13.02;;;8.40;89.70;;;;;;4969095;28;20046;-80
2023/05/06 11:59:15;;;;;;;30.63;11.00;;;8.40;90.30;;;;;;4965817;28;20050;-76
2023/05/06 12:01:44;;;;;;;21.83;9.05;;;8.50;90.50;;;;;;4951078;28;20534;-77
2023/05/06 12:04:11;;;;;;;19.60;9.48;;;8.60;90.00;;;;;;4967961;28;20061;-82
2023/05/06 12:06:39;;;;;;;14.45;8.43;;;8.60;89.30;;;;;;4952279;28;20892;-76
2023/05/06 12:09:09;;;;;;;15.85;7.75;;;8.60;89.20;;;;;;4951814;28;20097;-81
2023/05/06 12:11:37;;;;;;;17.02;7.80;;;8.60;89.40;;;;;;4953400;28;20546;-80
2023/05/06 12:14:06;;;;;;;15.27;7.20;;;8.60;87.90;;;;;;4952268;28;20130;-77
2023/05/06 12:16:34;;;;;;;18.90;7.63;;;8.50;88.20;;;;;;4972513;28;20479;-79
2023/05/06 12:19:02;;;;;;;13.18;6.88;;;8.60;87.90;;;;;;4945462;28;20145;-79
2023/05/06 12:21:29;;;;;;;216.48;87.68;;;8.60;88.20;;;;;;4970177;28;20066;-80
2023/05/06 12:23:58;;;;;;;34.20;20.83;;;8.60;87.50;;;;;;4970343;28;20059;-85
2023/05/06 12:26:26;;;;;;;19.20;10.55;;;8.60;89.00;;;;;;4950963;28;20109;-87
2023/05/06 12:29:07;;;;;;;22.20;9.70;;;8.70;88.20;;;;;;4948890;28;20046;-87
2023/05/06 12:31:34;;;;;;;26.38;10.82;;;8.70;87.40;;;;;;4945136;28;20056;-82
2023/05/06 12:34:02;;;;;;;21.83;10.07;;;8.70;88.00;;;;;;4950964;28;20051;-81
2023/05/06 12:36:31;;;;;;;23.15;9.40;;;8.70;89.10;;;;;;4951768;28;20452;-79
2023/05/06 12:39:00;;;;;;;16.38;8.95;;;8.70;88.10;;;;;;4969011;28;20145;-79
2023/05/06 12:41:46;;;;;;;28.67;11.60;;;8.60;88.80;;;;;;4967960;28;20443;-84
2023/05/06 12:44:36;;;;;;;32.78;11.20;;;8.60;90.10;;;;;;4960352;28;20484;-89
2023/05/06 12:47:04;;;;;;;27.73;12.32;;;8.70;92.10;;;;;;4968783;28;20067;-89
2023/05/06 12:49:46;;;;;;;23.08;9.27;;;8.60;91.50;;;;;;4970953;28;20110;-84
2023/05/06 12:52:14;;;;;;;21.95;8.90;;;8.70;92.40;;;;;;4950438;28;20050;-80
2023/05/06 12:54:41;;;;;;;22.52;9.55;;;8.60;91.80;;;;;;4965740;28;20101;-79
2023/05/06 12:57:08;;;;;;;32.45;10.50;;;8.60;91.70;;;;;;4944387;28;20042;-80